Time;durP1;ratioP1;P1;durP2;ratioP2;P2;SDS_P1;SDS_P2;PMS_P1;PMS_P2;Temp;Humidity;BMP_temperature;BMP_pressure;BME280_temperature;BME280_humidity;BME280_pressure;Samples;Min_cycle;Max_cycle;Signal;HPM_P1;HPM_P2
2021/05/28 00:00:31;;;;;;;1.30;1.10;;;;;;;;;;5029514;28;20464;-75
2021/05/28 00:02:57;;;;;;;1.50;1.17;;;;;;;;;;5031558;28;20516;-75
2021/05/28 00:05:23;;;;;;;1.33;1.10;;;;;;;;;;5031359;28;20221;-75
2021/05/28 00:07:49;;;;;;;1.10;0.87;;;;;;;;;;5031242;28;20435;-75
2021/05/28 00:10:16;;;;;;;1.30;0.93;;;;;;;;;;5027109;28;20538;-75
2021/05/28 00:12:42;;;;;;;3.10;1.33;;;;;;;;;;5030828;28;20920;-75
2021/05/28 00:15:12;;;;;;;1.63;1.10;;;;;;;;;;5034292;28;20182;-75
2021/05/28 00:17:38;;;;;;;1.30;1.10;;;;;;;;;;5034457;28;20265;-76
2021/05/28 00:20:05;;;;;;;1.67;1.58;;;;;;;;;;5034324;28;20267;-76
2021/05/28 00:22:30;;;;;;;1.23;1.08;;;;;;;;;;5034398;28;20238;-75
2021/05/28 00:24:56;;;;;;;1.60;1.43;;;;;;;;;;5035103;28;20174;-75
2021/05/28 00:27:23;;;;;;;1.13;0.97;;;;;;;;;;5033963;28;20462;-75
2021/05/28 00:29:49;;;;;;;1.10;0.90;;;;;;;;;;5016969;28;20473;-75
2021/05/28 00:32:15;;;;;;;1.87;1.47;;;;;;;;;;5026603;28;20714;-75
2021/05/28 00:34:41;;;;;;;1.63;1.53;;;;;;;;;;5034236;28;20892;-75
2021/05/28 00:37:07;;;;;;;1.60;1.23;;;;;;;;;;5033774;28;20428;-75
2021/05/28 00:39:33;;;;;;;1.10;0.77;;;;;;;;;;5033965;28;20851;-75
2021/05/28 00:41:59;;;;;;;1.30;1.00;;;;;;;;;;5033798;28;20615;-76
2021/05/28 00:44:27;;;;;;;1.10;0.87;;;;;;;;;;5034225;28;20263;-76
2021/05/28 00:46:53;;;;;;;1.52;1.42;;;;;;;;;;5033616;28;20507;-75
2021/05/28 00:49:19;;;;;;;1.10;0.70;;;;;;;;;;5033532;28;20288;-76
2021/05/28 00:51:45;;;;;;;1.10;0.70;;;;;;;;;;5033243;28;20195;-76
2021/05/28 00:54:11;;;;;;;1.45;1.10;;;;;;;;;;5033822;28;20761;-76
2021/05/28 00:56:38;;;;;;;1.50;1.00;;;;;;;;;;5031750;28;20178;-75
2021/05/28 00:59:04;;;;;;;1.10;0.85;;;;;;;;;;5032053;28;20267;-76
2021/05/28 01:01:30;;;;;;;1.20;1.10;;;;;;;;;;5033562;28;20206;-76
2021/05/28 01:03:57;;;;;;;1.10;0.70;;;;;;;;;;5049115;28;20268;-76
2021/05/28 01:06:24;;;;;;;1.10;0.80;;;;;;;;;;5048367;28;20198;-76
2021/05/28 01:08:50;;;;;;;1.10;0.88;;;;;;;;;;5033465;28;20568;-76
2021/05/28 01:11:16;;;;;;;1.10;0.90;;;;;;;;;;5033407;28;20198;-75
2021/05/28 01:13:42;;;;;;;2.27;1.50;;;;;;;;;;5033537;28;20475;-76
2021/05/28 01:16:08;;;;;;;1.93;1.00;;;;;;;;;;5033046;28;20551;-75
2021/05/28 01:18:34;;;;;;;1.53;1.37;;;;;;;;;;5033130;28;20420;-76
2021/05/28 01:21:00;;;;;;;1.53;1.10;;;;;;;;;;5032939;28;20476;-75
2021/05/28 01:23:26;;;;;;;1.10;0.73;;;;;;;;;;5033357;28;20433;-75
2021/05/28 01:25:52;;;;;;;1.30;1.13;;;;;;;;;;5031700;28;20510;-75
2021/05/28 01:28:21;;;;;;;1.20;0.95;;;;;;;;;;5032622;28;20215;-76
2021/05/28 01:30:47;;;;;;;1.75;1.42;;;;;;;;;;5032840;28;20194;-75
2021/05/28 01:33:13;;;;;;;1.55;1.20;;;;;;;;;;5032950;28;20263;-75
2021/05/28 01:35:39;;;;;;;1.38;1.27;;;;;;;;;;5032953;28;20177;-74
2021/05/28 01:38:05;;;;;;;1.87;1.67;;;;;;;;;;5027230;28;20598;-75
2021/05/28 01:40:32;;;;;;;2.20;1.30;;;;;;;;;;5032303;28;20452;-76
2021/05/28 01:42:58;;;;;;;1.13;0.88;;;;;;;;;;5033182;28;20413;-76
2021/05/28 01:45:24;;;;;;;1.10;0.73;;;;;;;;;;5032799;28;20185;-76
2021/05/28 01:47:51;;;;;;;1.10;0.93;;;;;;;;;;5032765;28;20185;-74
2021/05/28 01:50:17;;;;;;;1.35;1.15;;;;;;;;;;5032222;28;20196;-76
2021/05/28 01:52:43;;;;;;;1.20;0.90;;;;;;;;;;5031130;28;20232;-75
2021/05/28 01:55:11;;;;;;;1.60;1.00;;;;;;;;;;5032617;28;20185;-77
2021/05/28 01:57:37;;;;;;;1.60;1.50;;;;;;;;;;5031849;28;20178;-76
2021/05/28 02:00:06;;;;;;;2.15;1.52;;;;;;;;;;5031408;28;20213;-76
2021/05/28 02:02:32;;;;;;;2.38;0.90;;;;;;;;;;5032743;28;20236;-75
2021/05/28 02:04:58;;;;;;;1.10;0.80;;;;;;;;;;5032956;28;20638;-75
2021/05/28 02:07:24;;;;;;;4.03;1.40;;;;;;;;;;5032032;28;20484;-76
2021/05/28 02:09:50;;;;;;;1.10;1.00;;;;;;;;;;5032509;28;20255;-75
2021/05/28 02:12:16;;;;;;;2.95;1.20;;;;;;;;;;5032982;28;20182;-75
2021/05/28 02:14:42;;;;;;;1.20;0.93;;;;;;;;;;5033164;28;20177;-75
2021/05/28 02:17:10;;;;;;;3.20;3.00;;;;;;;;;;5032515;28;20178;-75
2021/05/28 02:19:36;;;;;;;1.10;0.77;;;;;;;;;;5032608;28;20550;-75
2021/05/28 02:22:02;;;;;;;9.57;2.15;;;;;;;;;;5032229;28;20665;-75
2021/05/28 02:24:28;;;;;;;1.10;1.00;;;;;;;;;;5032661;28;20708;-75
2021/05/28 02:26:56;;;;;;;2.40;1.77;;;;;;;;;;5032171;28;20313;-75
2021/05/28 02:29:22;;;;;;;4.55;1.17;;;;;;;;;;5030985;28;20464;-75
2021/05/28 02:31:48;;;;;;;1.30;1.10;;;;;;;;;;5032451;28;20198;-75
2021/05/28 02:34:14;;;;;;;1.60;1.50;;;;;;;;;;5032365;28;20669;-75
2021/05/28 02:36:40;;;;;;;1.50;1.03;;;;;;;;;;5032120;28;20827;-74
2021/05/28 02:39:07;;;;;;;1.80;1.52;;;;;;;;;;5032463;28;20421;-74
2021/05/28 02:41:33;;;;;;;1.40;0.80;;;;;;;;;;5032391;28;20272;-75
2021/05/28 02:44:00;;;;;;;1.45;1.35;;;;;;;;;;5032567;28;20179;-74
2021/05/28 02:46:25;;;;;;;2.67;1.10;;;;;;;;;;5032045;28;20174;-75
2021/05/28 02:48:51;;;;;;;1.20;1.10;;;;;;;;;;5021680;28;20358;-74
2021/05/28 02:51:19;;;;;;;1.77;1.13;;;;;;;;;;5019091;28;20441;-75
2021/05/28 02:53:45;;;;;;;1.33;1.23;;;;;;;;;;5034982;28;20178;-75
2021/05/28 02:56:12;;;;;;;1.27;1.17;;;;;;;;;;5033271;28;20189;-76
2021/05/28 02:58:38;;;;;;;1.30;1.10;;;;;;;;;;5030444;28;20428;-76
2021/05/28 03:01:04;;;;;;;3.70;2.60;;;;;;;;;;5030801;28;20218;-76
2021/05/28 03:03:30;;;;;;;1.47;1.37;;;;;;;;;;5031709;28;20576;-76
2021/05/28 03:05:56;;;;;;;1.20;1.10;;;;;;;;;;5031819;28;20776;-76
2021/05/28 03:08:22;;;;;;;2.13;1.92;;;;;;;;;;5031180;28;20536;-76
2021/05/28 03:10:48;;;;;;;1.73;1.23;;;;;;;;;;5031386;28;20284;-75
2021/05/28 03:13:14;;;;;;;2.00;1.90;;;;;;;;;;5031692;28;20405;-75
2021/05/28 03:15:40;;;;;;;2.83;1.80;;;;;;;;;;5031236;28;20185;-76
2021/05/28 03:18:14;;;;;;;1.25;1.15;;;;;;;;;;5030910;28;20192;-76
2021/05/28 03:20:41;;;;;;;1.30;1.10;;;;;;;;;;5031632;28;20204;-75
2021/05/28 03:23:07;;;;;;;1.67;1.05;;;;;;;;;;5031157;28;20266;-75
2021/05/28 03:25:33;;;;;;;1.30;1.20;;;;;;;;;;5031380;28;20276;-75
2021/05/28 03:28:00;;;;;;;3.10;1.13;;;;;;;;;;5031027;28;20725;-75
2021/05/28 03:30:26;;;;;;;2.00;1.10;;;;;;;;;;5019963;28;20975;-75
2021/05/28 03:32:52;;;;;;;1.80;1.38;;;;;;;;;;5029445;28;20178;-75
2021/05/28 03:35:18;;;;;;;1.77;1.53;;;;;;;;;;5025452;28;20190;-75
2021/05/28 03:37:44;;;;;;;1.60;1.40;;;;;;;;;;5031296;28;22299;-76
2021/05/28 03:40:10;;;;;;;1.30;1.10;;;;;;;;;;5031128;28;20249;-75
2021/05/28 03:42:36;;;;;;;2.17;1.98;;;;;;;;;;5031767;28;20232;-75
2021/05/28 03:45:04;;;;;;;1.10;0.85;;;;;;;;;;5031154;28;20170;-75
2021/05/28 03:47:30;;;;;;;1.40;1.05;;;;;;;;;;5029362;28;20668;-76
2021/05/28 03:49:56;;;;;;;1.53;1.43;;;;;;;;;;5014723;28;20218;-76
2021/05/28 03:52:22;;;;;;;1.10;0.70;;;;;;;;;;5033098;28;20474;-76
2021/05/28 03:54:48;;;;;;;1.10;0.85;;;;;;;;;;5035016;28;20646;-75
2021/05/28 03:57:14;;;;;;;3.87;1.57;;;;;;;;;;5033689;28;20189;-76
2021/05/28 03:59:40;;;;;;;1.75;1.48;;;;;;;;;;5034392;28;20443;-76
2021/05/28 04:02:06;;;;;;;1.87;1.07;;;;;;;;;;5034568;28;20187;-76
2021/05/28 04:04:33;;;;;;;1.57;1.47;;;;;;;;;;5034687;28;20436;-75
2021/05/28 04:07:00;;;;;;;2.17;2.00;;;;;;;;;;5034819;28;20444;-76
2021/05/28 04:09:26;;;;;;;1.30;1.20;;;;;;;;;;5033918;28;20206;-76
2021/05/28 04:11:52;;;;;;;1.30;1.20;;;;;;;;;;5033330;28;20193;-75
2021/05/28 04:14:18;;;;;;;1.47;1.37;;;;;;;;;;5034658;28;20178;-75
2021/05/28 04:16:44;;;;;;;1.40;1.20;;;;;;;;;;5034365;28;20815;-76
2021/05/28 04:19:10;;;;;;;2.07;1.13;;;;;;;;;;5034452;28;20175;-75
2021/05/28 04:21:36;;;;;;;1.80;1.70;;;;;;;;;;5033993;28;20494;-75
2021/05/28 04:24:02;;;;;;;2.40;1.75;;;;;;;;;;5033152;28;20174;-76
2021/05/28 04:26:28;;;;;;;1.65;1.55;;;;;;;;;;5035019;28;20739;-75
2021/05/28 04:28:54;;;;;;;1.77;1.65;;;;;;;;;;5034209;28;20232;-75
2021/05/28 04:31:20;;;;;;;8.90;2.05;;;;;;;;;;5048818;28;20216;-76
2021/05/28 04:33:46;;;;;;;2.78;2.58;;;;;;;;;;5034208;28;20224;-77
2021/05/28 04:36:12;;;;;;;3.07;2.87;;;;;;;;;;5033251;28;20229;-76
2021/05/28 04:38:38;;;;;;;1.37;1.23;;;;;;;;;;5034094;28;20413;-76
2021/05/28 04:41:04;;;;;;;3.33;3.13;;;;;;;;;;5034450;28;20440;-76
2021/05/28 04:43:30;;;;;;;2.25;2.10;;;;;;;;;;5034340;28;20182;-77
2021/05/28 04:45:56;;;;;;;2.00;1.90;;;;;;;;;;5033807;28;20188;-76
2021/05/28 04:48:22;;;;;;;2.30;2.07;;;;;;;;;;5033726;28;20460;-77
2021/05/28 04:50:48;;;;;;;2.05;1.40;;;;;;;;;;5034360;28;20458;-77
2021/05/28 04:53:14;;;;;;;2.53;2.00;;;;;;;;;;5034087;28;20213;-77
2021/05/28 04:55:40;;;;;;;2.10;1.90;;;;;;;;;;5031351;28;20217;-77
2021/05/28 04:58:06;;;;;;;1.87;1.43;;;;;;;;;;5027453;28;20425;-77
2021/05/28 05:00:32;;;;;;;2.10;1.58;;;;;;;;;;5032390;28;20481;-77
2021/05/28 05:02:58;;;;;;;1.30;1.20;;;;;;;;;;5042125;28;20178;-78
2021/05/28 05:05:26;;;;;;;1.80;1.10;;;;;;;;;;5047309;28;20175;-77
2021/05/28 05:07:52;;;;;;;1.95;1.70;;;;;;;;;;5032828;28;20209;-77
2021/05/28 05:10:18;;;;;;;2.40;1.73;;;;;;;;;;5033658;28;20605;-77
2021/05/28 05:12:44;;;;;;;4.25;1.80;;;;;;;;;;5033125;28;20413;-77
2021/05/28 05:15:10;;;;;;;1.58;1.40;;;;;;;;;;5033180;28;20189;-79
2021/05/28 05:17:37;;;;;;;4.30;3.15;;;;;;;;;;5036218;28;20183;-79
2021/05/28 05:20:03;;;;;;;1.83;1.52;;;;;;;;;;5027928;28;20665;-79
2021/05/28 05:22:29;;;;;;;3.28;2.25;;;;;;;;;;5036719;28;20258;-79
2021/05/28 05:24:55;;;;;;;2.97;2.78;;;;;;;;;;5036941;28;20697;-79
2021/05/28 05:27:21;;;;;;;3.10;2.90;;;;;;;;;;5036417;28;20184;-78
2021/05/28 05:29:47;;;;;;;2.58;2.38;;;;;;;;;;5037254;28;20469;-78
2021/05/28 05:32:14;;;;;;;1.60;1.40;;;;;;;;;;5036960;28;20175;-78
2021/05/28 05:34:40;;;;;;;4.05;2.40;;;;;;;;;;5035985;28;20424;-79
2021/05/28 05:37:06;;;;;;;2.25;1.77;;;;;;;;;;5038090;28;20181;-79
2021/05/28 05:39:33;;;;;;;4.13;1.67;;;;;;;;;;5037848;28;20717;-79
2021/05/28 05:42:02;;;;;;;2.03;1.83;;;;;;;;;;5035713;28;20413;-79
2021/05/28 05:44:28;;;;;;;3.50;2.92;;;;;;;;;;5032748;28;20516;-78
2021/05/28 05:46:54;;;;;;;3.15;2.92;;;;;;;;;;5034565;28;20174;-78
2021/05/28 05:49:20;;;;;;;1.35;1.25;;;;;;;;;;5034904;28;20224;-78
2021/05/28 05:51:46;;;;;;;2.27;2.07;;;;;;;;;;5035142;28;20209;-78
2021/05/28 05:54:12;;;;;;;2.77;2.60;;;;;;;;;;5030343;28;20832;-78
2021/05/28 05:56:38;;;;;;;2.08;1.95;;;;;;;;;;5016621;28;20413;-78
2021/05/28 05:59:04;;;;;;;1.92;1.15;;;;;;;;;;5038705;28;20186;-79
2021/05/28 06:01:30;;;;;;;3.27;2.97;;;;;;;;;;5036346;28;20613;-78
2021/05/28 06:03:56;;;;;;;2.22;2.03;;;;;;;;;;5034762;28;20450;-78
2021/05/28 06:06:23;;;;;;;4.50;4.10;;;;;;;;;;5034318;28;20184;-78
2021/05/28 06:08:51;;;;;;;2.22;1.48;;;;;;;;;;5033362;28;20468;-78
2021/05/28 06:11:17;;;;;;;1.95;1.65;;;;;;;;;;5034130;28;20190;-78
2021/05/28 06:13:43;;;;;;;2.20;2.00;;;;;;;;;;5033981;28;20178;-79
2021/05/28 06:16:09;;;;;;;1.90;1.70;;;;;;;;;;5034174;28;20421;-78
2021/05/28 06:18:35;;;;;;;3.17;1.83;;;;;;;;;;5032363;28;20444;-78
2021/05/28 06:21:01;;;;;;;2.88;2.67;;;;;;;;;;5033447;28;20206;-78
2021/05/28 06:23:27;;;;;;;2.20;1.80;;;;;;;;;;5033863;28;20189;-78
2021/05/28 06:25:53;;;;;;;4.83;2.07;;;;;;;;;;5032561;28;20248;-78
2021/05/28 06:28:19;;;;;;;1.85;1.30;;;;;;;;;;5033029;28;20496;-78
2021/05/28 06:30:46;;;;;;;1.63;1.52;;;;;;;;;;5032880;28;20194;-78
2021/05/28 06:33:12;;;;;;;3.47;2.17;;;;;;;;;;5033553;28;20170;-78
2021/05/28 06:35:39;;;;;;;5.30;3.28;;;;;;;;;;5033607;28;20174;-77
2021/05/28 06:38:05;;;;;;;3.15;2.85;;;;;;;;;;5032354;28;20248;-78
2021/05/28 06:40:31;;;;;;;6.50;3.28;;;;;;;;;;5031708;28;20351;-77
2021/05/28 06:42:57;;;;;;;4.20;2.80;;;;;;;;;;5023644;28;20175;-77
2021/05/28 06:45:23;;;;;;;2.23;1.63;;;;;;;;;;5012479;28;20175;-78
2021/05/28 06:47:49;;;;;;;4.50;1.73;;;;;;;;;;5025319;28;20420;-76
2021/05/28 06:50:16;;;;;;;5.22;3.33;;;;;;;;;;5031513;28;20944;-77
2021/05/28 06:52:42;;;;;;;2.88;2.28;;;;;;;;;;5030268;28;20240;-78
2021/05/28 06:55:09;;;;;;;2.95;1.83;;;;;;;;;;5032177;28;20185;-77
2021/05/28 06:57:35;;;;;;;3.20;2.42;;;;;;;;;;5047414;28;20221;-77
2021/05/28 07:00:01;;;;;;;5.90;4.10;;;;;;;;;;5031984;28;20209;-77
2021/05/28 07:02:27;;;;;;;1.80;1.40;;;;;;;;;;5031638;28;20174;-77
2021/05/28 07:04:53;;;;;;;1.42;1.33;;;;;;;;;;5031178;28;20170;-77
2021/05/28 07:07:19;;;;;;;1.60;1.50;;;;;;;;;;5032563;28;20236;-77
2021/05/28 07:09:45;;;;;;;3.30;2.10;;;;;;;;;;5030675;28;20704;-76
2021/05/28 07:12:11;;;;;;;1.90;1.52;;;;;;;;;;5030518;28;20413;-77
2021/05/28 07:14:38;;;;;;;2.17;1.98;;;;;;;;;;5031944;28;20286;-77
2021/05/28 07:17:04;;;;;;;1.70;1.42;;;;;;;;;;5031460;28;20182;-76
2021/05/28 07:19:30;;;;;;;2.55;2.35;;;;;;;;;;5032577;28;20182;-78
2021/05/28 07:21:56;;;;;;;4.22;2.45;;;;;;;;;;5032581;28;20182;-77
2021/05/28 07:24:22;;;;;;;1.87;1.20;;;;;;;;;;5043749;28;20178;-78
2021/05/28 07:26:48;;;;;;;3.50;3.20;;;;;;;;;;5029858;28;20790;-80
2021/05/28 07:29:14;;;;;;;1.60;1.50;;;;;;;;;;5042825;28;20515;-79
2021/05/28 07:31:41;;;;;;;2.53;2.00;;;;;;;;;;5039412;28;20190;-78
2021/05/28 07:34:06;;;;;;;3.45;1.60;;;;;;;;;;5034423;28;20415;-78
2021/05/28 07:36:32;;;;;;;5.30;2.80;;;;;;;;;;5041486;28;20259;-78
2021/05/28 07:38:58;;;;;;;1.80;1.30;;;;;;;;;;5045685;28;20433;-77
2021/05/28 07:41:25;;;;;;;1.83;1.67;;;;;;;;;;5042173;28;20975;-77
2021/05/28 07:43:51;;;;;;;2.20;1.40;;;;;;;;;;5035820;28;20510;-77
2021/05/28 07:46:17;;;;;;;1.00;0.70;;;;;;;;;;5034908;28;20596;-77
2021/05/28 07:48:43;;;;;;;1.60;1.50;;;;;;;;;;5035819;28;20260;-78
2021/05/28 07:51:09;;;;;;;2.17;1.20;;;;;;;;;;5034318;28;20448;-77
2021/05/28 07:53:35;;;;;;;3.87;1.77;;;;;;;;;;5027102;28;20545;-77
2021/05/28 07:56:05;;;;;;;1.40;1.30;;;;;;;;;;5049769;28;20423;-76
2021/05/28 07:58:31;;;;;;;2.10;1.52;;;;;;;;;;5036032;28;20416;-76
2021/05/28 08:00:57;;;;;;;1.75;1.65;;;;;;;;;;5036011;28;20291;-78
2021/05/28 08:03:23;;;;;;;1.38;1.25;;;;;;;;;;5039093;28;20178;-77
2021/05/28 08:05:50;;;;;;;2.90;2.03;;;;;;;;;;5041145;28;20178;-79
2021/05/28 08:08:17;;;;;;;2.92;2.47;;;;;;;;;;5042668;28;20456;-78
2021/05/28 08:10:43;;;;;;;2.85;1.33;;;;;;;;;;5041163;28;20293;-78
2021/05/28 08:13:08;;;;;;;2.40;1.50;;;;;;;;;;5042454;28;20206;-78
2021/05/28 08:15:35;;;;;;;1.70;1.10;;;;;;;;;;5042188;28;20409;-78
2021/05/28 08:18:01;;;;;;;1.35;1.00;;;;;;;;;;5043236;28;20429;-78
2021/05/28 08:20:27;;;;;;;1.60;1.50;;;;;;;;;;5042290;28;20206;-78
2021/05/28 08:22:54;;;;;;;2.65;1.02;;;;;;;;;;5044334;28;20170;-79
2021/05/28 08:25:20;;;;;;;1.10;0.90;;;;;;;;;;5047117;28;20178;-78
2021/05/28 08:27:47;;;;;;;1.58;1.48;;;;;;;;;;5046371;28;20174;-78
2021/05/28 08:30:14;;;;;;;1.20;0.80;;;;;;;;;;5047136;28;20566;-78
2021/05/28 08:32:40;;;;;;;1.48;1.38;;;;;;;;;;5045806;28;20179;-79
2021/05/28 08:35:07;;;;;;;1.23;1.13;;;;;;;;;;5047183;28;20175;-77
2021/05/28 08:37:33;;;;;;;1.90;1.50;;;;;;;;;;5045284;28;20183;-77
2021/05/28 08:40:00;;;;;;;2.65;1.30;;;;;;;;;;5045067;28;20237;-77
2021/05/28 08:42:27;;;;;;;1.75;1.00;;;;;;;;;;5046886;28;20649;-78
2021/05/28 08:44:53;;;;;;;1.25;1.15;;;;;;;;;;5046539;28;20183;-78
2021/05/28 08:47:19;;;;;;;3.63;1.20;;;;;;;;;;5046138;28;20209;-77
2021/05/28 08:49:48;;;;;;;1.30;1.20;;;;;;;;;;5046946;28;20465;-79
2021/05/28 08:52:14;;;;;;;1.27;1.17;;;;;;;;;;5048616;28;20423;-80
2021/05/28 08:54:41;;;;;;;0.90;0.70;;;;;;;;;;5048912;28;20509;-79
2021/05/28 08:57:07;;;;;;;1.17;0.90;;;;;;;;;;5053250;28;20407;-76
2021/05/28 08:59:33;;;;;;;1.30;0.90;;;;;;;;;;5052920;28;20437;-78
2021/05/28 09:01:59;;;;;;;1.23;1.03;;;;;;;;;;5052783;28;20390;-79
2021/05/28 09:04:25;;;;;;;0.80;0.70;;;;;;;;;;5053616;28;20409;-78
2021/05/28 09:06:51;;;;;;;2.20;1.50;;;;;;;;;;5038894;28;20430;-78
2021/05/28 09:09:17;;;;;;;1.77;1.47;;;;;;;;;;5032661;28;20470;-78
2021/05/28 09:11:52;;;;;;;0.97;0.77;;;;;;;;;;5034135;28;20406;-78
2021/05/28 09:14:31;;;;;;;1.10;1.00;;;;;;;;;;5034613;28;20419;-78
2021/05/28 09:16:57;;;;;;;1.30;1.20;;;;;;;;;;5034631;28;20418;-77
2021/05/28 09:19:23;;;;;;;1.63;1.23;;;;;;;;;;5045317;28;20422;-75
2021/05/28 09:22:00;;;;;;;1.20;1.10;;;;;;;;;;5063975;28;20409;-75
2021/05/28 09:24:31;;;;;;;1.27;1.17;;;;;;;;;;5061745;28;20423;-77
2021/05/28 09:26:57;;;;;;;0.93;0.80;;;;;;;;;;5054422;28;20609;-77
2021/05/28 09:29:23;;;;;;;2.20;1.40;;;;;;;;;;5048137;28;20471;-79
2021/05/28 09:31:49;;;;;;;1.63;0.80;;;;;;;;;;5040460;28;20931;-77
2021/05/28 09:34:26;;;;;;;1.50;1.37;;;;;;;;;;5037979;28;20414;-78
2021/05/28 09:36:52;;;;;;;0.90;0.70;;;;;;;;;;5037355;28;20487;-78
2021/05/28 09:39:18;;;;;;;1.13;1.03;;;;;;;;;;5031271;28;20974;-78
2021/05/28 09:41:45;;;;;;;1.93;1.73;;;;;;;;;;5039705;28;20804;-77
2021/05/28 09:44:14;;;;;;;1.00;0.90;;;;;;;;;;5039529;28;20425;-78
2021/05/28 09:47:00;;;;;;;1.63;1.53;;;;;;;;;;5038522;28;20414;-77
2021/05/28 09:49:27;;;;;;;1.23;1.10;;;;;;;;;;5036638;28;20851;-77
2021/05/28 09:52:06;;;;;;;1.63;1.53;;;;;;;;;;5037486;28;20534;-78
2021/05/28 09:54:32;;;;;;;0.80;0.67;;;;;;;;;;5037822;28;20381;-78
2021/05/28 09:56:58;;;;;;;0.80;0.70;;;;;;;;;;5037124;28;20441;-78
2021/05/28 09:59:24;;;;;;;3.17;0.80;;;;;;;;;;5037008;28;20431;-78
2021/05/28 10:02:01;;;;;;;1.60;1.50;;;;;;;;;;5037173;28;20531;-78
2021/05/28 10:04:29;;;;;;;0.90;0.70;;;;;;;;;;5037802;28;20386;-78
2021/05/28 10:06:55;;;;;;;0.90;0.77;;;;;;;;;;5037058;28;20487;-77
2021/05/28 10:09:22;;;;;;;1.00;0.90;;;;;;;;;;5036960;28;20864;-78
2021/05/28 10:11:48;;;;;;;1.17;1.07;;;;;;;;;;5036629;28;20423;-78
2021/05/28 10:14:14;;;;;;;1.80;0.90;;;;;;;;;;5037973;28;20412;-79
2021/05/28 10:16:40;;;;;;;0.90;0.80;;;;;;;;;;5037507;28;20391;-78
2021/05/28 10:19:06;;;;;;;1.23;1.10;;;;;;;;;;5037641;28;20391;-78
2021/05/28 10:21:32;;;;;;;1.80;1.70;;;;;;;;;;5037177;28;20419;-78
2021/05/28 10:23:59;;;;;;;1.20;1.10;;;;;;;;;;5037262;28;20412;-79
2021/05/28 10:26:34;;;;;;;1.20;0.93;;;;;;;;;;5037923;28;20396;-79
2021/05/28 10:29:00;;;;;;;1.10;1.03;;;;;;;;;;5038530;28;20975;-77
2021/05/28 10:31:45;;;;;;;1.10;0.83;;;;;;;;;;5038992;28;20403;-79
2021/05/28 10:34:11;;;;;;;0.87;0.87;;;;;;;;;;5037845;28;20409;-79
2021/05/28 10:36:44;;;;;;;0.70;0.70;;;;;;;;;;5038632;28;20471;-79
2021/05/28 10:39:11;;;;;;;1.10;1.00;;;;;;;;;;5038365;28;20487;-79
2021/05/28 10:41:40;;;;;;;1.27;1.17;;;;;;;;;;5037460;28;20452;-80
2021/05/28 10:44:10;;;;;;;1.20;1.10;;;;;;;;;;5039539;28;20379;-80
2021/05/28 10:46:37;;;;;;;1.00;0.90;;;;;;;;;;5039975;28;20437;-78
2021/05/28 10:49:10;;;;;;;0.77;0.77;;;;;;;;;;5036836;28;20483;-79
2021/05/28 10:51:37;;;;;;;0.60;0.60;;;;;;;;;;5040705;28;20536;-79
2021/05/28 10:54:03;;;;;;;0.73;0.70;;;;;;;;;;5056478;28;20404;-79
2021/05/28 10:56:38;;;;;;;5.40;1.53;;;;;;;;;;5043120;28;20459;-79
2021/05/28 10:59:07;;;;;;;0.80;0.80;;;;;;;;;;5034706;28;20443;-79
2021/05/28 11:01:35;;;;;;;0.70;0.60;;;;;;;;;;5034492;28;20465;-79
2021/05/28 11:04:05;;;;;;;0.70;0.70;;;;;;;;;;5032817;28;20939;-78
2021/05/28 11:06:32;;;;;;;1.10;0.80;;;;;;;;;;5033320;28;20402;-78
2021/05/28 11:09:07;;;;;;;0.70;0.60;;;;;;;;;;5033067;28;20439;-79
2021/05/28 11:11:37;;;;;;;0.63;0.57;;;;;;;;;;5034846;28;21026;-77
2021/05/28 11:14:10;;;;;;;0.70;0.67;;;;;;;;;;5036593;28;20497;-79
2021/05/28 11:16:56;;;;;;;0.80;0.67;;;;;;;;;;5036309;28;20410;-79
2021/05/28 11:19:31;;;;;;;1.17;1.07;;;;;;;;;;5036004;28;20942;-78
2021/05/28 11:21:59;;;;;;;0.70;0.70;;;;;;;;;;5033428;28;20793;-78
2021/05/28 11:24:43;;;;;;;0.70;0.70;;;;;;;;;;5037546;28;20469;-78
2021/05/28 11:27:35;;;;;;;1.00;0.90;;;;;;;;;;5036813;28;20979;-78
2021/05/28 11:30:04;;;;;;;1.00;0.70;;;;;;;;;;5036566;28;20475;-79
2021/05/28 11:32:37;;;;;;;0.70;0.70;;;;;;;;;;5037116;28;20406;-77
2021/05/28 11:35:12;;;;;;;0.83;0.83;;;;;;;;;;5036309;28;20439;-79
2021/05/28 11:37:39;;;;;;;0.70;0.70;;;;;;;;;;5043683;28;20441;-77
2021/05/28 11:40:24;;;;;;;0.77;0.77;;;;;;;;;;5042739;28;20515;-77
2021/05/28 11:42:51;;;;;;;0.70;0.70;;;;;;;;;;5031266;28;20448;-77
2021/05/28 11:45:18;;;;;;;0.80;0.80;;;;;;;;;;5031914;28;20435;-78
2021/05/28 11:47:44;;;;;;;0.83;0.83;;;;;;;;;;5030211;28;20502;-77
2021/05/28 11:50:12;;;;;;;0.83;0.83;;;;;;;;;;5031094;28;20471;-78
2021/05/28 11:52:38;;;;;;;0.77;0.77;;;;;;;;;;5031016;28;20427;-76
2021/05/28 11:55:05;;;;;;;0.70;0.70;;;;;;;;;;5035084;28;20478;-77
2021/05/28 11:57:31;;;;;;;1.80;1.20;;;;;;;;;;5044834;28;20408;-80
2021/05/28 11:59:57;;;;;;;1.33;1.20;;;;;;;;;;5044072;28;20517;-77
2021/05/28 12:02:44;;;;;;;2.53;1.03;;;;;;;;;;5044341;28;20472;-79
2021/05/28 12:05:29;;;;;;;0.63;0.60;;;;;;;;;;5044371;28;20577;-80
2021/05/28 12:08:00;;;;;;;1.20;1.10;;;;;;;;;;5045400;28;20474;-77
2021/05/28 12:10:27;;;;;;;1.10;1.00;;;;;;;;;;5043606;28;20453;-80
2021/05/28 12:12:54;;;;;;;2.43;1.80;;;;;;;;;;5046308;28;20545;-77
2021/05/28 12:15:21;;;;;;;1.37;1.00;;;;;;;;;;5046572;28;20435;-78
2021/05/28 12:17:47;;;;;;;1.37;1.27;;;;;;;;;;5044991;28;20525;-76
2021/05/28 12:20:27;;;;;;;1.63;1.10;;;;;;;;;;5044927;28;20456;-78
2021/05/28 12:23:02;;;;;;;0.73;0.73;;;;;;;;;;5041694;28;20422;-78
2021/05/28 12:25:29;;;;;;;1.20;1.07;;;;;;;;;;5026198;28;20451;-80
2021/05/28 12:28:06;;;;;;;0.90;0.80;;;;;;;;;;5025747;28;20944;-77
2021/05/28 12:30:32;;;;;;;1.70;1.10;;;;;;;;;;5018856;28;20436;-76
2021/05/28 12:32:58;;;;;;;1.33;0.97;;;;;;;;;;5014966;28;20773;-76
2021/05/28 12:35:24;;;;;;;4.90;1.30;;;;;;;;;;5033916;28;20919;-76
2021/05/28 12:38:08;;;;;;;0.60;0.50;;;;;;;;;;5036415;28;20494;-77
2021/05/28 12:40:35;;;;;;;1.10;0.83;;;;;;;;;;5033742;28;20462;-77
2021/05/28 12:43:01;;;;;;;0.80;0.80;;;;;;;;;;5034205;28;20451;-78
2021/05/28 12:45:41;;;;;;;0.90;0.90;;;;;;;;;;5034053;28;20420;-77
2021/05/28 12:48:08;;;;;;;0.80;0.60;;;;;;;;;;5023108;28;20442;-75
2021/05/28 12:50:35;;;;;;;0.90;0.90;;;;;;;;;;5056730;28;20437;-77
2021/05/28 12:53:02;;;;;;;1.17;1.00;;;;;;;;;;5054373;28;20393;-77
2021/05/28 12:55:29;;;;;;;1.00;1.00;;;;;;;;;;5037788;28;20413;-77
2021/05/28 12:57:55;;;;;;;1.83;1.10;;;;;;;;;;5033831;28;20488;-77
2021/05/28 13:00:50;;;;;;;0.83;0.83;;;;;;;;;;5049280;28;20482;-79
2021/05/28 13:03:30;;;;;;;1.10;1.00;;;;;;;;;;5032480;28;20428;-78
2021/05/28 13:05:56;;;;;;;2.37;1.50;;;;;;;;;;5037896;28;20447;-78
2021/05/28 13:08:32;;;;;;;1.93;1.27;;;;;;;;;;5041684;28;20462;-79
2021/05/28 13:10:59;;;;;;;0.97;0.90;;;;;;;;;;5044880;28;20477;-78
2021/05/28 13:13:25;;;;;;;0.90;0.80;;;;;;;;;;5048545;28;20431;-79
2021/05/28 13:15:51;;;;;;;1.23;1.13;;;;;;;;;;5048615;28;20497;-77
2021/05/28 13:18:17;;;;;;;1.13;1.03;;;;;;;;;;5047626;28;20448;-76
2021/05/28 13:20:44;;;;;;;1.17;0.77;;;;;;;;;;5049245;28;20432;-78
2021/05/28 13:23:18;;;;;;;1.60;1.50;;;;;;;;;;5050325;28;20413;-79
2021/05/28 13:25:44;;;;;;;1.10;0.93;;;;;;;;;;5047919;28;20931;-78
2021/05/28 13:28:10;;;;;;;1.03;0.93;;;;;;;;;;5053777;28;20423;-78
2021/05/28 13:30:40;;;;;;;1.00;0.80;;;;;;;;;;5054284;28;20444;-77
2021/05/28 13:33:21;;;;;;;0.90;0.90;;;;;;;;;;5042886;28;20498;-77
2021/05/28 13:35:48;;;;;;;0.90;0.90;;;;;;;;;;5035593;28;20488;-77
2021/05/28 13:38:14;;;;;;;0.70;0.70;;;;;;;;;;5041003;28;20782;-76
2021/05/28 13:40:41;;;;;;;0.70;0.70;;;;;;;;;;5038529;28;20445;-76
2021/05/28 13:43:07;;;;;;;0.87;0.63;;;;;;;;;;5033138;28;20804;-76
2021/05/28 13:45:33;;;;;;;1.13;1.00;;;;;;;;;;5033098;28;20905;-76
2021/05/28 13:47:59;;;;;;;1.30;0.80;;;;;;;;;;5032994;28;20987;-76
2021/05/28 13:50:27;;;;;;;0.97;0.87;;;;;;;;;;5032194;28;20458;-77
2021/05/28 13:52:53;;;;;;;1.43;1.00;;;;;;;;;;5035707;28;20420;-78
2021/05/28 13:55:19;;;;;;;0.80;0.80;;;;;;;;;;5035265;28;20436;-79
2021/05/28 13:57:45;;;;;;;0.90;0.90;;;;;;;;;;5055237;28;20437;-78
2021/05/28 14:00:12;;;;;;;1.67;0.90;;;;;;;;;;5054171;28;20483;-78
2021/05/28 14:02:38;;;;;;;1.13;1.00;;;;;;;;;;5042149;28;20438;-78
2021/05/28 14:05:05;;;;;;;0.90;0.90;;;;;;;;;;5037707;28;20984;-78
2021/05/28 14:07:31;;;;;;;1.13;0.93;;;;;;;;;;5037174;28;21059;-79
2021/05/28 14:09:57;;;;;;;0.80;0.80;;;;;;;;;;5035411;28;21171;-77
2021/05/28 14:12:24;;;;;;;1.33;1.23;;;;;;;;;;5032215;28;20502;-77
2021/05/28 14:14:50;;;;;;;1.40;0.80;;;;;;;;;;5032798;28;20405;-78
2021/05/28 14:17:16;;;;;;;0.90;0.87;;;;;;;;;;5032806;28;20428;-78
2021/05/28 14:19:43;;;;;;;0.70;0.70;;;;;;;;;;5032377;28;20461;-77
2021/05/28 14:22:09;;;;;;;0.80;0.70;;;;;;;;;;5032557;28;20846;-77
2021/05/28 14:24:35;;;;;;;1.07;0.77;;;;;;;;;;5050567;28;20510;-77
2021/05/28 14:27:01;;;;;;;0.60;0.60;;;;;;;;;;5038495;28;20516;-78
2021/05/28 14:29:27;;;;;;;0.70;0.70;;;;;;;;;;5019577;28;20488;-78
2021/05/28 14:31:53;;;;;;;0.70;0.70;;;;;;;;;;5035293;28;20425;-78
2021/05/28 14:34:19;;;;;;;1.07;0.93;;;;;;;;;;5032221;28;20931;-78
2021/05/28 14:36:45;;;;;;;0.60;0.60;;;;;;;;;;5031515;28;20483;-78
2021/05/28 14:39:12;;;;;;;0.90;0.80;;;;;;;;;;5035784;28;20425;-79
2021/05/28 14:41:39;;;;;;;0.60;0.60;;;;;;;;;;5033165;28;20464;-78
2021/05/28 14:44:06;;;;;;;1.13;1.07;;;;;;;;;;5031536;28;20432;-78